createdAt,value
2022-10-23T00:02:40.344Z,18.20
2022-10-23T00:05:30.030Z,17.98
2022-10-23T00:08:19.475Z,18.40
2022-10-23T00:11:11.552Z,18.77
2022-10-23T00:14:02.848Z,18.02
2022-10-23T00:16:53.057Z,18.48
2022-10-23T00:19:41.803Z,19.00
2022-10-23T00:22:31.012Z,16.95
2022-10-23T00:25:21.076Z,17.33
2022-10-23T00:28:11.913Z,17.40
2022-10-23T00:31:05.346Z,15.90
2022-10-23T00:33:54.929Z,17.63
2022-10-23T00:36:43.964Z,17.67
2022-10-23T00:39:33.258Z,16.13
2022-10-23T00:42:23.244Z,17.02
2022-10-23T00:45:21.952Z,17.00
2022-10-23T00:48:10.964Z,16.65
2022-10-23T00:51:00.420Z,14.90
2022-10-23T00:54:12.801Z,15.27
2022-10-23T00:57:05.808Z,16.10
2022-10-23T00:59:55.395Z,16.05
2022-10-23T01:02:46.311Z,16.75
2022-10-23T01:08:43.675Z,15.05
2022-10-23T01:11:38.933Z,14.85
2022-10-23T01:14:34.429Z,15.43
2022-10-23T01:17:27.422Z,16.63
2022-10-23T01:20:24.544Z,16.08
2022-10-23T01:23:16.803Z,16.70
2022-10-23T01:26:14.054Z,15.45
2022-10-23T01:29:06.926Z,15.60
2022-10-23T01:31:58.835Z,17.98
2022-10-23T01:34:49.764Z,17.65
2022-10-23T01:37:42.175Z,15.65
2022-10-23T01:40:35.138Z,17.00
2022-10-23T01:43:27.983Z,18.58
2022-10-23T01:46:19.483Z,17.67
2022-10-23T01:49:12.913Z,17.45
2022-10-23T01:52:07.893Z,17.42
2022-10-23T01:55:01.452Z,16.20
2022-10-23T01:57:53.185Z,15.82
2022-10-23T02:00:45.989Z,15.90
2022-10-23T02:03:39.129Z,14.10
2022-10-23T02:06:28.351Z,13.68
2022-10-23T02:09:17.953Z,13.93
2022-10-23T02:12:10.503Z,16.00
2022-10-23T02:15:00.828Z,12.60
2022-10-23T02:17:53.602Z,13.07
2022-10-23T02:20:46.900Z,12.70
2022-10-23T02:23:37.468Z,13.32
2022-10-23T02:26:28.787Z,12.48
2022-10-23T02:29:20.830Z,12.93
2022-10-23T02:32:11.515Z,13.45
2022-10-23T02:35:00.520Z,12.73
2022-10-23T02:37:55.886Z,13.73
2022-10-23T02:40:46.353Z,13.75
2022-10-23T02:43:39.082Z,12.27
2022-10-23T02:46:31.501Z,13.60
2022-10-23T02:49:24.687Z,13.82
2022-10-23T02:52:16.893Z,13.95
2022-10-23T02:55:13.405Z,14.55
2022-10-23T02:58:05.746Z,15.13
2022-10-23T03:00:57.034Z,14.73
2022-10-23T03:03:48.025Z,14.52
2022-10-23T03:06:37.375Z,14.75
2022-10-23T03:09:28.471Z,17.13
2022-10-23T03:12:19.088Z,15.43
2022-10-23T03:15:09.118Z,15.00
2022-10-23T03:17:58.729Z,15.85
2022-10-23T03:20:48.397Z,15.70
2022-10-23T03:23:37.481Z,14.07
2022-10-23T03:26:26.527Z,14.35
2022-10-23T03:29:16.940Z,13.95
2022-10-23T03:32:06.779Z,15.65
2022-10-23T03:34:56.211Z,14.70
2022-10-23T03:37:45.991Z,14.25
2022-10-23T03:40:36.091Z,15.68
2022-10-23T03:43:27.581Z,16.50
2022-10-23T03:46:18.061Z,15.57
2022-10-23T03:49:06.990Z,16.27
2022-10-23T03:51:56.301Z,16.08
2022-10-23T03:54:45.460Z,17.95
2022-10-23T03:57:34.431Z,17.38
2022-10-23T04:00:23.963Z,16.67
2022-10-23T04:03:14.560Z,20.58
2022-10-23T04:06:04.113Z,21.63
2022-10-23T04:08:53.168Z,19.65
2022-10-23T04:11:42.730Z,22.65
2022-10-23T04:14:32.585Z,21.50
2022-10-23T04:17:21.847Z,22.40
2022-10-23T04:20:12.595Z,24.27
2022-10-23T04:23:01.157Z,23.60
2022-10-23T04:25:50.783Z,23.48
2022-10-23T04:28:40.126Z,22.63
2022-10-23T04:31:28.960Z,25.38
2022-10-23T04:34:17.944Z,24.70
2022-10-23T04:37:08.288Z,23.45
2022-10-23T04:39:57.082Z,24.60
2022-10-23T04:42:46.346Z,23.65
2022-10-23T04:45:35.508Z,23.88
2022-10-23T04:48:28.351Z,24.45
2022-10-23T04:51:18.931Z,24.15
2022-10-23T04:54:10.318Z,24.40
2022-10-23T04:57:01.555Z,23.90
2022-10-23T04:59:50.368Z,23.50
2022-10-23T05:02:39.581Z,25.65
2022-10-23T05:05:28.989Z,26.42
2022-10-23T05:08:18.771Z,24.40
2022-10-23T05:11:09.286Z,28.33
2022-10-23T05:13:58.634Z,26.30
2022-10-23T05:16:51.921Z,27.63
2022-10-23T05:19:45.339Z,24.83
2022-10-23T05:22:38.508Z,25.95
2022-10-23T05:25:28.122Z,27.17
2022-10-23T05:28:18.462Z,24.13
2022-10-23T05:31:08.233Z,26.20
2022-10-23T05:33:58.389Z,25.23
2022-10-23T05:36:49.515Z,23.55
2022-10-23T05:39:38.629Z,25.08
2022-10-23T05:42:27.941Z,27.70
2022-10-23T05:45:19.323Z,26.15
2022-10-23T05:48:11.322Z,26.48
2022-10-23T05:51:12.889Z,27.65
2022-10-23T05:54:01.860Z,27.00
2022-10-23T05:56:51.834Z,27.95
2022-10-23T05:59:40.771Z,26.38
2022-10-23T06:02:31.468Z,24.85
2022-10-23T06:05:20.509Z,23.42
2022-10-23T06:08:09.517Z,26.50
2022-10-23T06:10:58.434Z,26.00
2022-10-23T06:13:48.835Z,23.63
2022-10-23T06:16:38.333Z,23.25
2022-10-23T06:19:29.390Z,23.00
2022-10-23T06:25:12.604Z,22.75
2022-10-23T06:28:02.111Z,24.00
2022-10-23T06:30:51.279Z,22.80
2022-10-23T06:33:40.921Z,24.65
2022-10-23T06:36:31.600Z,24.58
2022-10-23T06:39:21.310Z,23.73
2022-10-23T06:42:10.399Z,23.98
2022-10-23T06:45:03.270Z,24.52
2022-10-23T06:47:55.980Z,23.10
2022-10-23T06:50:45.516Z,23.08
2022-10-23T06:53:35.925Z,23.00
2022-10-23T06:56:29.385Z,22.58
2022-10-23T06:59:18.418Z,21.60
2022-10-23T07:02:08.178Z,20.08
2022-10-23T07:04:58.196Z,21.50
2022-10-23T07:07:46.912Z,20.77
2022-10-23T07:10:37.852Z,20.60
2022-10-23T07:13:26.454Z,19.70
2022-10-23T07:16:17.687Z,21.08
2022-10-23T07:19:06.967Z,19.35
2022-10-23T07:21:55.598Z,19.02
2022-10-23T07:24:44.160Z,19.52
2022-10-23T07:27:37.778Z,19.00
2022-10-23T07:30:26.895Z,19.38
2022-10-23T07:33:15.571Z,18.60
2022-10-23T07:36:05.894Z,18.48
2022-10-23T07:38:54.500Z,19.13
2022-10-23T07:41:45.434Z,18.40
2022-10-23T07:44:36.206Z,18.48
2022-10-23T07:47:25.534Z,17.77
2022-10-23T07:50:14.590Z,17.65
2022-10-23T07:53:03.974Z,18.00
2022-10-23T07:55:56.443Z,16.20
2022-10-23T07:58:46.188Z,18.65
2022-10-23T08:01:39.691Z,18.70
2022-10-23T08:04:29.666Z,17.77
2022-10-23T08:07:18.872Z,17.63
2022-10-23T08:10:08.796Z,18.42
2022-10-23T08:12:58.354Z,17.13
2022-10-23T08:15:48.228Z,20.10
2022-10-23T08:18:41.141Z,20.42
2022-10-23T08:21:30.476Z,18.50
2022-10-23T08:24:20.120Z,18.70
2022-10-23T08:27:09.609Z,18.85
2022-10-23T08:29:58.701Z,17.98
2022-10-23T08:32:48.105Z,20.70
2022-10-23T08:35:39.942Z,17.25
2022-10-23T08:38:30.023Z,18.10
2022-10-23T08:41:28.126Z,19.75
2022-10-23T08:44:24.775Z,17.25
2022-10-23T08:47:18.881Z,18.20
2022-10-23T08:50:14.972Z,17.85
2022-10-23T08:53:13.518Z,19.02
2022-10-23T08:56:05.515Z,20.00
2022-10-23T08:58:58.213Z,24.42
2022-10-23T09:01:51.201Z,20.90
2022-10-23T09:04:48.695Z,19.80
2022-10-23T09:07:44.758Z,21.20
2022-10-23T09:10:50.658Z,20.70
2022-10-23T09:14:21.993Z,20.33
2022-10-23T09:17:19.923Z,20.90
2022-10-23T09:20:17.455Z,20.45
2022-10-23T09:23:15.938Z,20.20
2022-10-23T09:26:13.181Z,22.05
2022-10-23T09:29:17.782Z,24.95
2022-10-23T09:32:08.882Z,23.70
2022-10-23T09:34:58.400Z,21.80
2022-10-23T09:37:53.505Z,23.33
2022-10-23T09:40:44.543Z,23.50
2022-10-23T09:43:35.894Z,22.63
2022-10-23T09:46:24.645Z,22.38
2022-10-23T09:49:21.960Z,23.98
2022-10-23T09:52:25.550Z,24.55
2022-10-23T09:55:23.348Z,22.73
2022-10-23T09:58:22.554Z,22.65
2022-10-23T10:01:25.495Z,25.10
2022-10-23T10:04:15.105Z,25.65
2022-10-23T10:07:06.739Z,23.70
2022-10-23T10:09:56.255Z,23.50
2022-10-23T10:12:52.627Z,22.45
2022-10-23T10:15:50.647Z,24.52
2022-10-23T10:18:45.086Z,24.27
2022-10-23T10:21:43.613Z,25.20
2022-10-23T10:24:37.646Z,25.92
2022-10-23T10:27:42.867Z,24.77
2022-10-23T10:30:40.847Z,24.42
2022-10-23T10:33:37.659Z,23.83
2022-10-23T10:36:47.249Z,23.42
2022-10-23T10:39:44.062Z,23.17
2022-10-23T10:42:49.088Z,26.63
2022-10-23T10:45:41.437Z,25.85
2022-10-23T10:48:42.501Z,26.13
2022-10-23T10:51:33.243Z,26.40
2022-10-23T10:54:36.008Z,24.63
2022-10-23T10:57:32.509Z,27.35
2022-10-23T11:00:23.194Z,29.25
2022-10-23T11:03:16.981Z,27.88
2022-10-23T11:06:07.271Z,25.98
2022-10-23T11:09:09.136Z,29.10
2022-10-23T11:12:07.625Z,23.80
2022-10-23T11:14:57.734Z,24.75
2022-10-23T11:17:50.663Z,26.33
2022-10-23T11:20:53.951Z,27.67
2022-10-23T11:24:05.080Z,24.00
2022-10-23T11:27:08.621Z,24.20
2022-10-23T11:30:21.271Z,25.90
2022-10-23T11:33:55.182Z,27.60
2022-10-23T11:36:48.133Z,24.30
2022-10-23T11:39:41.596Z,25.40
2022-10-23T11:42:33.435Z,25.88
2022-10-23T11:45:44.282Z,27.65
2022-10-23T11:48:40.227Z,26.35
2022-10-23T11:51:30.154Z,26.15
2022-10-23T11:54:24.885Z,26.40
2022-10-23T11:57:16.280Z,25.42
2022-10-23T12:00:22.379Z,26.98
2022-10-23T12:03:21.484Z,24.48
2022-10-23T12:06:24.591Z,24.83
2022-10-23T12:09:25.607Z,24.52
2022-10-23T12:12:20.157Z,27.42
2022-10-23T12:15:11.382Z,23.90
2022-10-23T12:18:10.414Z,22.95
2022-10-23T12:21:00.363Z,24.05
2022-10-23T12:24:14.236Z,24.15
2022-10-23T12:27:05.992Z,23.85
2022-10-23T12:30:05.023Z,26.98
2022-10-23T12:33:12.745Z,25.75
2022-10-23T12:36:22.621Z,26.33
2022-10-23T12:39:28.228Z,23.98
2022-10-23T12:42:21.143Z,24.00
2022-10-23T12:45:17.746Z,25.10
2022-10-23T12:48:09.094Z,26.40
2022-10-23T12:50:58.683Z,24.45
2022-10-23T12:53:50.697Z,24.83
2022-10-23T12:56:44.498Z,24.40
2022-10-23T12:59:38.595Z,22.35
2022-10-23T13:02:29.748Z,24.92
2022-10-23T13:05:21.535Z,25.20
2022-10-23T13:08:11.699Z,27.05
2022-10-23T13:11:02.016Z,23.33
2022-10-23T13:13:53.130Z,24.95
2022-10-23T13:16:42.930Z,24.38
2022-10-23T13:19:32.283Z,23.27
2022-10-23T13:22:22.821Z,23.85
2022-10-23T13:25:26.711Z,23.42
2022-10-23T13:28:26.635Z,22.48
2022-10-23T13:31:32.371Z,21.80
2022-10-23T13:34:25.402Z,24.15
2022-10-23T13:37:26.010Z,21.02
2022-10-23T13:40:25.123Z,25.77
2022-10-23T13:43:20.218Z,26.95
2022-10-23T13:46:15.302Z,23.80
2022-10-23T13:49:06.170Z,23.60
2022-10-23T13:51:58.107Z,23.55
2022-10-23T13:54:47.617Z,23.80
2022-10-23T13:57:37.371Z,24.10
2022-10-23T14:00:26.813Z,21.98
2022-10-23T14:03:16.314Z,22.00
2022-10-23T14:06:07.409Z,22.38
2022-10-23T14:08:56.104Z,20.33
2022-10-23T14:11:46.120Z,21.33
2022-10-23T14:14:35.327Z,22.15
2022-10-23T14:17:24.370Z,22.98
2022-10-23T14:20:15.135Z,21.75
2022-10-23T14:23:07.628Z,20.48
2022-10-23T14:26:02.570Z,22.15
2022-10-23T14:28:55.264Z,24.13
2022-10-23T14:31:44.466Z,21.25
2022-10-23T14:34:34.033Z,20.92
2022-10-23T14:37:23.783Z,20.13
2022-10-23T14:40:14.550Z,20.95
2022-10-23T14:43:04.348Z,23.38
2022-10-23T14:45:54.010Z,21.55
2022-10-23T14:48:46.149Z,21.80
2022-10-23T14:51:37.672Z,22.38
2022-10-23T14:54:28.565Z,22.75
2022-10-23T14:57:21.601Z,21.35
2022-10-23T15:00:11.948Z,18.65
2022-10-23T15:03:01.672Z,19.67
2022-10-23T15:05:50.633Z,20.98
2022-10-23T15:08:39.695Z,19.33
2022-10-23T16:21:24.472Z,22.63
2022-10-23T16:24:15.755Z,21.15
2022-10-23T16:27:05.229Z,20.42
2022-10-23T16:29:54.809Z,19.80
2022-10-23T16:32:44.170Z,18.98
2022-10-23T16:35:33.876Z,19.67
2022-10-23T16:38:23.434Z,19.83
2022-10-23T16:41:14.246Z,20.08
2022-10-23T16:44:03.598Z,22.63
2022-10-23T16:46:52.959Z,24.33
2022-10-23T16:49:43.219Z,22.90
2022-10-23T16:52:33.665Z,22.60
2022-10-23T16:55:23.276Z,21.55
2022-10-23T16:58:14.380Z,26.75
2022-10-23T17:01:05.887Z,24.70
2022-10-23T17:03:56.063Z,21.73
2022-10-23T17:07:02.160Z,22.25
2022-10-23T17:09:57.331Z,21.08
2022-10-23T17:12:47.236Z,23.58
2022-10-23T17:18:27.560Z,22.48
2022-10-23T17:21:18.200Z,22.80
2022-10-23T17:24:08.433Z,22.55
2022-10-23T17:26:58.144Z,21.98
2022-10-23T17:29:47.020Z,20.80
2022-10-23T17:32:38.451Z,22.20
2022-10-23T17:35:27.450Z,21.33
2022-10-23T17:38:18.296Z,21.65
2022-10-23T17:41:09.058Z,22.77
2022-10-23T17:43:59.355Z,22.73
2022-10-23T17:46:52.460Z,22.17
2022-10-23T17:49:45.482Z,23.38
2022-10-23T17:52:35.300Z,23.42
2022-10-23T17:55:24.656Z,22.98
2022-10-23T17:58:13.832Z,22.80
2022-10-23T18:01:06.746Z,21.83
2022-10-23T18:03:57.062Z,23.02
2022-10-23T18:06:49.947Z,23.35
2022-10-23T18:09:40.160Z,22.38
2022-10-23T18:12:29.861Z,25.58
2022-10-23T18:15:19.464Z,24.08
2022-10-23T18:18:11.448Z,23.63
2022-10-23T18:21:01.429Z,24.38
2022-10-23T18:23:52.780Z,23.77
2022-10-23T18:26:43.108Z,25.55
2022-10-23T18:29:32.280Z,22.73
2022-10-23T18:32:21.071Z,24.40
2022-10-23T18:35:11.159Z,23.58
2022-10-23T18:38:03.713Z,23.63
2022-10-23T18:40:58.737Z,22.33
2022-10-23T18:43:47.943Z,25.80
2022-10-23T18:46:38.548Z,25.58
2022-10-23T18:49:28.646Z,23.17
2022-10-23T18:52:17.521Z,24.45
2022-10-23T18:55:06.978Z,25.90
2022-10-23T18:57:58.558Z,23.25
2022-10-23T19:00:49.427Z,23.75
2022-10-23T19:03:38.609Z,23.63
2022-10-23T19:06:28.615Z,22.90
2022-10-23T19:09:18.312Z,21.52
2022-10-23T19:12:09.532Z,23.10
2022-10-23T19:15:00.465Z,23.60
2022-10-23T19:17:55.613Z,22.50
2022-10-23T19:20:44.976Z,21.90
2022-10-23T19:23:36.384Z,21.77
2022-10-23T19:26:25.973Z,22.80
2022-10-23T19:29:19.825Z,22.00
2022-10-23T19:32:10.834Z,23.08
2022-10-23T19:35:01.292Z,21.73
2022-10-23T19:37:50.801Z,21.70
2022-10-23T19:40:39.996Z,20.55
2022-10-23T19:43:29.414Z,20.63
2022-10-23T19:46:19.070Z,21.73
2022-10-23T19:49:09.966Z,21.65
2022-10-23T19:51:59.056Z,20.52
2022-10-23T19:54:48.214Z,21.77
2022-10-23T19:57:37.852Z,22.98
2022-10-23T20:00:28.481Z,21.27
2022-10-23T20:03:19.161Z,21.52
2022-10-23T20:06:13.667Z,19.67
2022-10-23T20:09:03.347Z,20.05
2022-10-23T20:11:52.924Z,20.67
2022-10-23T20:14:41.917Z,19.45
2022-10-23T20:17:31.617Z,20.13
2022-10-23T20:20:22.153Z,20.73
2022-10-23T20:23:13.523Z,22.60
2022-10-23T20:26:06.670Z,21.02
2022-10-23T20:28:59.671Z,19.30
2022-10-23T20:31:51.264Z,19.75
2022-10-23T20:34:41.154Z,21.88
2022-10-23T20:37:32.663Z,19.77
2022-10-23T20:40:24.647Z,19.98
2022-10-23T20:43:16.884Z,19.70
2022-10-23T20:46:07.877Z,18.30
2022-10-23T20:49:04.523Z,19.85
2022-10-23T20:51:57.589Z,18.80
2022-10-23T20:54:47.790Z,19.13
2022-10-23T20:57:41.832Z,20.05
2022-10-23T21:00:34.097Z,18.75
2022-10-23T21:03:23.504Z,18.98
2022-10-23T21:06:16.027Z,18.65
2022-10-23T21:09:07.331Z,18.45
2022-10-23T21:11:56.460Z,18.60
2022-10-23T21:14:47.408Z,16.88
2022-10-23T21:17:42.450Z,20.38
2022-10-23T21:20:32.591Z,19.48
2022-10-23T21:23:22.117Z,18.80
2022-10-23T21:26:13.432Z,18.70
2022-10-23T21:29:18.088Z,18.83
2022-10-23T21:32:12.320Z,19.45
2022-10-23T21:35:02.695Z,16.60
2022-10-23T21:37:55.061Z,18.42
2022-10-23T21:40:44.951Z,18.90
2022-10-23T21:43:36.484Z,17.95
2022-10-23T21:46:29.747Z,18.85
2022-10-23T21:49:21.135Z,17.83
2022-10-23T21:52:11.782Z,20.35
2022-10-23T21:55:01.998Z,19.30
2022-10-23T21:57:51.311Z,19.55
2022-10-23T22:00:40.950Z,21.02
2022-10-23T22:03:30.343Z,19.73
2022-10-23T22:06:22.134Z,18.92
2022-10-23T22:09:12.076Z,19.58
2022-10-23T22:12:02.804Z,22.17
2022-10-23T22:14:51.714Z,22.00
2022-10-23T22:17:41.354Z,22.00
2022-10-23T22:20:30.865Z,23.23
2022-10-23T22:23:22.128Z,20.67
2022-10-23T22:26:21.797Z,20.95
2022-10-23T22:29:12.781Z,21.17
2022-10-23T22:32:02.300Z,20.95
2022-10-23T22:34:53.474Z,20.27
2022-10-23T22:37:43.145Z,21.40
2022-10-23T22:40:33.645Z,22.63
2022-10-23T22:43:23.197Z,22.58
2022-10-23T22:46:15.661Z,22.95
2022-10-23T22:51:54.885Z,21.05
2022-10-23T22:54:44.527Z,19.73
2022-10-23T22:57:35.282Z,20.48
2022-10-23T23:00:25.228Z,22.80
2022-10-23T23:03:14.254Z,20.05
2022-10-23T23:06:05.450Z,21.00
2022-10-23T23:08:54.950Z,20.00
2022-10-23T23:11:51.847Z,20.42
2022-10-23T23:14:44.137Z,20.00
2022-10-23T23:17:35.463Z,20.63
2022-10-23T23:20:24.567Z,20.10
2022-10-23T23:23:14.519Z,18.67
2022-10-23T23:26:06.694Z,20.33
2022-10-23T23:28:56.977Z,19.45
2022-10-23T23:31:47.885Z,18.83
2022-10-23T23:34:37.593Z,20.10
2022-10-23T23:37:26.835Z,20.52
2022-10-23T23:40:16.518Z,18.02
2022-10-23T23:43:06.220Z,18.00
2022-10-23T23:45:55.688Z,19.45
2022-10-23T23:48:48.695Z,17.60
2022-10-23T23:51:37.590Z,19.42
2022-10-23T23:54:26.759Z,20.38
2022-10-23T23:57:15.777Z,17.77
